sensor_id;sensor_type;location;lat;lon;timestamp;P1;durP1;ratioP1;P2;durP2;ratioP2
20629;SDS011;17386;43.846;25.950;2022-09-27T00:00:20;11.93;;;6.00;;
20629;SDS011;17386;43.846;25.950;2022-09-27T00:02:45;14.13;;;6.15;;
20629;SDS011;17386;43.846;25.950;2022-09-27T00:05:11;13.18;;;6.30;;
20629;SDS011;17386;43.846;25.950;2022-09-27T00:07:36;11.27;;;7.15;;
20629;SDS011;17386;43.846;25.950;2022-09-27T00:10:02;12.65;;;6.35;;
20629;SDS011;17386;43.846;25.950;2022-09-27T00:12:28;12.88;;;7.22;;
20629;SDS011;17386;43.846;25.950;2022-09-27T00:14:54;15.20;;;7.10;;
20629;SDS011;17386;43.846;25.950;2022-09-27T00:17:19;14.07;;;6.88;;
20629;SDS011;17386;43.846;25.950;2022-09-27T00:19:44;13.82;;;6.38;;
20629;SDS011;17386;43.846;25.950;2022-09-27T00:22:10;15.13;;;7.47;;
20629;SDS011;17386;43.846;25.950;2022-09-27T00:24:35;13.15;;;7.60;;
20629;SDS011;17386;43.846;25.950;2022-09-27T00:27:01;14.00;;;7.80;;
20629;SDS011;17386;43.846;25.950;2022-09-27T00:29:26;15.95;;;7.60;;
20629;SDS011;17386;43.846;25.950;2022-09-27T00:31:52;14.65;;;7.65;;
20629;SDS011;17386;43.846;25.950;2022-09-27T00:34:19;12.32;;;6.88;;
20629;SDS011;17386;43.846;25.950;2022-09-27T00:36:47;16.92;;;7.80;;
20629;SDS011;17386;43.846;25.950;2022-09-27T00:39:14;15.80;;;7.70;;
20629;SDS011;17386;43.846;25.950;2022-09-27T00:41:40;15.43;;;7.72;;
20629;SDS011;17386;43.846;25.950;2022-09-27T00:49:32;12.15;;;7.30;;
20629;SDS011;17386;43.846;25.950;2022-09-27T00:54:33;12.80;;;6.60;;
20629;SDS011;17386;43.846;25.950;2022-09-27T00:57:03;14.73;;;6.53;;
20629;SDS011;17386;43.846;25.950;2022-09-27T00:59:36;13.43;;;7.65;;
20629;SDS011;17386;43.846;25.950;2022-09-27T01:02:05;11.90;;;7.13;;
20629;SDS011;17386;43.846;25.950;2022-09-27T01:04:32;12.43;;;6.57;;
20629;SDS011;17386;43.846;25.950;2022-09-27T01:06:58;14.80;;;7.70;;
20629;SDS011;17386;43.846;25.950;2022-09-27T01:09:24;12.40;;;7.32;;
20629;SDS011;17386;43.846;25.950;2022-09-27T01:12:06;12.05;;;7.38;;
20629;SDS011;17386;43.846;25.950;2022-09-27T01:14:44;14.32;;;7.40;;
20629;SDS011;17386;43.846;25.950;2022-09-27T01:23:24;13.98;;;7.20;;
20629;SDS011;17386;43.846;25.950;2022-09-27T01:47:18;13.55;;;7.63;;
20629;SDS011;17386;43.846;25.950;2022-09-27T01:52:37;9.35;;;6.53;;
20629;SDS011;17386;43.846;25.950;2022-09-27T01:55:07;10.38;;;7.00;;
20629;SDS011;17386;43.846;25.950;2022-09-27T01:57:38;13.30;;;6.95;;
20629;SDS011;17386;43.846;25.950;2022-09-27T02:00:08;11.93;;;7.03;;
20629;SDS011;17386;43.846;25.950;2022-09-27T02:02:37;13.68;;;7.60;;
20629;SDS011;17386;43.846;25.950;2022-09-27T02:05:08;11.60;;;7.28;;
20629;SDS011;17386;43.846;25.950;2022-09-27T02:07:43;11.77;;;6.55;;
20629;SDS011;17386;43.846;25.950;2022-09-27T02:10:17;11.43;;;6.57;;
20629;SDS011;17386;43.846;25.950;2022-09-27T02:13:22;11.15;;;7.20;;
20629;SDS011;17386;43.846;25.950;2022-09-27T02:22:04;13.65;;;7.00;;
20629;SDS011;17386;43.846;25.950;2022-09-27T02:24:36;10.90;;;7.20;;
20629;SDS011;17386;43.846;25.950;2022-09-27T02:27:17;15.80;;;7.03;;
20629;SDS011;17386;43.846;25.950;2022-09-27T02:29:57;11.90;;;6.85;;
20629;SDS011;17386;43.846;25.950;2022-09-27T02:32:26;14.80;;;7.07;;
20629;SDS011;17386;43.846;25.950;2022-09-27T02:34:51;10.88;;;6.15;;
20629;SDS011;17386;43.846;25.950;2022-09-27T02:37:19;12.60;;;7.10;;
20629;SDS011;17386;43.846;25.950;2022-09-27T02:39:45;11.52;;;6.78;;
20629;SDS011;17386;43.846;25.950;2022-09-27T02:42:12;13.25;;;7.43;;
20629;SDS011;17386;43.846;25.950;2022-09-27T02:44:38;15.43;;;7.40;;
20629;SDS011;17386;43.846;25.950;2022-09-27T02:55:40;12.23;;;6.97;;
20629;SDS011;17386;43.846;25.950;2022-09-27T03:00:40;12.85;;;7.05;;
20629;SDS011;17386;43.846;25.950;2022-09-27T03:03:13;13.45;;;7.28;;
20629;SDS011;17386;43.846;25.950;2022-09-27T03:05:41;12.55;;;7.13;;
20629;SDS011;17386;43.846;25.950;2022-09-27T03:08:10;12.82;;;7.28;;
20629;SDS011;17386;43.846;25.950;2022-09-27T03:10:36;14.43;;;6.78;;
20629;SDS011;17386;43.846;25.950;2022-09-27T03:13:02;14.20;;;7.45;;
20629;SDS011;17386;43.846;25.950;2022-09-27T03:15:29;13.45;;;7.43;;
20629;SDS011;17386;43.846;25.950;2022-09-27T03:17:54;16.83;;;7.00;;
20629;SDS011;17386;43.846;25.950;2022-09-27T03:20:20;10.52;;;6.85;;
20629;SDS011;17386;43.846;25.950;2022-09-27T03:22:45;10.43;;;6.45;;
20629;SDS011;17386;43.846;25.950;2022-09-27T03:25:11;13.10;;;6.78;;
20629;SDS011;17386;43.846;25.950;2022-09-27T03:27:37;10.38;;;6.65;;
20629;SDS011;17386;43.846;25.950;2022-09-27T03:30:02;11.07;;;6.45;;
20629;SDS011;17386;43.846;25.950;2022-09-27T03:32:30;15.27;;;7.15;;
20629;SDS011;17386;43.846;25.950;2022-09-27T03:34:55;10.52;;;6.53;;
20629;SDS011;17386;43.846;25.950;2022-09-27T03:37:21;11.23;;;6.63;;
20629;SDS011;17386;43.846;25.950;2022-09-27T03:39:47;15.48;;;7.35;;
20629;SDS011;17386;43.846;25.950;2022-09-27T03:42:12;11.13;;;7.13;;
20629;SDS011;17386;43.846;25.950;2022-09-27T03:44:38;14.25;;;7.45;;
20629;SDS011;17386;43.846;25.950;2022-09-27T03:47:03;12.23;;;7.07;;
20629;SDS011;17386;43.846;25.950;2022-09-27T03:49:29;13.75;;;7.60;;
20629;SDS011;17386;43.846;25.950;2022-09-27T03:51:56;11.45;;;6.72;;
20629;SDS011;17386;43.846;25.950;2022-09-27T03:54:22;11.38;;;6.88;;
20629;SDS011;17386;43.846;25.950;2022-09-27T03:56:48;13.48;;;7.18;;
20629;SDS011;17386;43.846;25.950;2022-09-27T03:59:13;12.50;;;7.45;;
20629;SDS011;17386;43.846;25.950;2022-09-27T04:01:38;11.90;;;7.43;;
20629;SDS011;17386;43.846;25.950;2022-09-27T04:04:04;14.07;;;7.20;;
20629;SDS011;17386;43.846;25.950;2022-09-27T04:06:30;13.63;;;7.65;;
20629;SDS011;17386;43.846;25.950;2022-09-27T04:08:55;13.02;;;7.22;;
20629;SDS011;17386;43.846;25.950;2022-09-27T04:11:21;12.25;;;7.00;;
20629;SDS011;17386;43.846;25.950;2022-09-27T04:13:49;12.63;;;6.95;;
20629;SDS011;17386;43.846;25.950;2022-09-27T04:16:14;16.20;;;6.97;;
20629;SDS011;17386;43.846;25.950;2022-09-27T04:18:40;13.85;;;7.50;;
20629;SDS011;17386;43.846;25.950;2022-09-27T04:21:06;12.05;;;7.50;;
20629;SDS011;17386;43.846;25.950;2022-09-27T04:23:32;16.02;;;8.55;;
20629;SDS011;17386;43.846;25.950;2022-09-27T04:25:57;11.73;;;7.18;;
20629;SDS011;17386;43.846;25.950;2022-09-27T04:28:23;15.68;;;8.00;;
20629;SDS011;17386;43.846;25.950;2022-09-27T04:30:48;16.15;;;7.40;;
20629;SDS011;17386;43.846;25.950;2022-09-27T04:33:14;10.45;;;6.75;;
20629;SDS011;17386;43.846;25.950;2022-09-27T04:35:39;12.32;;;7.40;;
20629;SDS011;17386;43.846;25.950;2022-09-27T04:38:24;16.95;;;8.45;;
20629;SDS011;17386;43.846;25.950;2022-09-27T04:40:50;13.45;;;8.35;;
20629;SDS011;17386;43.846;25.950;2022-09-27T04:43:15;12.73;;;7.60;;
20629;SDS011;17386;43.846;25.950;2022-09-27T04:45:44;18.15;;;9.50;;
20629;SDS011;17386;43.846;25.950;2022-09-27T04:48:10;15.52;;;8.90;;
20629;SDS011;17386;43.846;25.950;2022-09-27T04:50:35;13.32;;;8.82;;
20629;SDS011;17386;43.846;25.950;2022-09-27T04:53:01;20.35;;;9.23;;
20629;SDS011;17386;43.846;25.950;2022-09-27T04:55:27;17.35;;;9.65;;
20629;SDS011;17386;43.846;25.950;2022-09-27T04:57:53;16.17;;;9.65;;
20629;SDS011;17386;43.846;25.950;2022-09-27T05:00:18;22.48;;;10.82;;
20629;SDS011;17386;43.846;25.950;2022-09-27T05:02:44;22.45;;;11.18;;
20629;SDS011;17386;43.846;25.950;2022-09-27T05:05:12;20.77;;;10.88;;
20629;SDS011;17386;43.846;25.950;2022-09-27T05:07:38;21.23;;;10.50;;
20629;SDS011;17386;43.846;25.950;2022-09-27T05:10:05;19.85;;;10.27;;
20629;SDS011;17386;43.846;25.950;2022-09-27T05:12:31;18.10;;;10.18;;
20629;SDS011;17386;43.846;25.950;2022-09-27T05:14:57;17.33;;;10.63;;
20629;SDS011;17386;43.846;25.950;2022-09-27T05:17:22;19.25;;;11.55;;
20629;SDS011;17386;43.846;25.950;2022-09-27T05:19:48;18.83;;;11.02;;
20629;SDS011;17386;43.846;25.950;2022-09-27T05:22:14;20.33;;;11.60;;
20629;SDS011;17386;43.846;25.950;2022-09-27T05:24:40;17.70;;;10.93;;
20629;SDS011;17386;43.846;25.950;2022-09-27T05:27:06;19.63;;;10.30;;
20629;SDS011;17386;43.846;25.950;2022-09-27T05:29:34;16.25;;;9.68;;
20629;SDS011;17386;43.846;25.950;2022-09-27T05:32:00;15.85;;;9.77;;
20629;SDS011;17386;43.846;25.950;2022-09-27T05:34:26;17.83;;;10.93;;
20629;SDS011;17386;43.846;25.950;2022-09-27T05:36:51;17.33;;;10.70;;
20629;SDS011;17386;43.846;25.950;2022-09-27T05:39:17;16.10;;;9.70;;
20629;SDS011;17386;43.846;25.950;2022-09-27T05:41:43;16.77;;;10.93;;
20629;SDS011;17386;43.846;25.950;2022-09-27T05:44:09;18.23;;;9.82;;
20629;SDS011;17386;43.846;25.950;2022-09-27T05:46:35;22.40;;;10.85;;
20629;SDS011;17386;43.846;25.950;2022-09-27T05:49:00;15.90;;;10.18;;
20629;SDS011;17386;43.846;25.950;2022-09-27T05:51:26;17.25;;;10.68;;
20629;SDS011;17386;43.846;25.950;2022-09-27T05:53:52;20.00;;;10.43;;
20629;SDS011;17386;43.846;25.950;2022-09-27T05:56:17;21.83;;;10.43;;
20629;SDS011;17386;43.846;25.950;2022-09-27T05:58:43;17.23;;;10.50;;
20629;SDS011;17386;43.846;25.950;2022-09-27T06:01:08;16.73;;;9.45;;
20629;SDS011;17386;43.846;25.950;2022-09-27T06:03:34;18.75;;;10.90;;
20629;SDS011;17386;43.846;25.950;2022-09-27T06:06:01;18.63;;;10.55;;
20629;SDS011;17386;43.846;25.950;2022-09-27T06:08:33;16.15;;;9.73;;
20629;SDS011;17386;43.846;25.950;2022-09-27T06:11:00;15.93;;;9.85;;
20629;SDS011;17386;43.846;25.950;2022-09-27T06:13:30;17.75;;;9.32;;
20629;SDS011;17386;43.846;25.950;2022-09-27T06:15:57;16.75;;;10.18;;
20629;SDS011;17386;43.846;25.950;2022-09-27T06:18:23;18.27;;;9.60;;
20629;SDS011;17386;43.846;25.950;2022-09-27T06:20:49;14.38;;;9.80;;
20629;SDS011;17386;43.846;25.950;2022-09-27T06:23:18;15.90;;;9.98;;
20629;SDS011;17386;43.846;25.950;2022-09-27T06:25:47;16.85;;;11.32;;
20629;SDS011;17386;43.846;25.950;2022-09-27T06:28:13;16.65;;;9.52;;
20629;SDS011;17386;43.846;25.950;2022-09-27T06:30:40;18.23;;;10.10;;
20629;SDS011;17386;43.846;25.950;2022-09-27T06:33:08;20.67;;;9.80;;
20629;SDS011;17386;43.846;25.950;2022-09-27T06:35:35;17.00;;;8.90;;
20629;SDS011;17386;43.846;25.950;2022-09-27T06:38:02;17.60;;;9.38;;
20629;SDS011;17386;43.846;25.950;2022-09-27T06:40:29;14.02;;;8.90;;
20629;SDS011;17386;43.846;25.950;2022-09-27T06:43:00;13.98;;;8.63;;
20629;SDS011;17386;43.846;25.950;2022-09-27T06:45:27;15.80;;;9.13;;
20629;SDS011;17386;43.846;25.950;2022-09-27T06:47:52;17.52;;;8.95;;
20629;SDS011;17386;43.846;25.950;2022-09-27T06:50:19;16.98;;;9.50;;
20629;SDS011;17386;43.846;25.950;2022-09-27T06:52:47;18.17;;;9.43;;
20629;SDS011;17386;43.846;25.950;2022-09-27T06:55:13;15.52;;;9.27;;
20629;SDS011;17386;43.846;25.950;2022-09-27T06:57:39;17.30;;;9.93;;
20629;SDS011;17386;43.846;25.950;2022-09-27T07:00:23;20.55;;;10.68;;
20629;SDS011;17386;43.846;25.950;2022-09-27T07:02:50;17.42;;;11.00;;
20629;SDS011;17386;43.846;25.950;2022-09-27T07:05:18;15.73;;;9.98;;
20629;SDS011;17386;43.846;25.950;2022-09-27T07:07:44;16.98;;;10.00;;
20629;SDS011;17386;43.846;25.950;2022-09-27T07:10:14;22.70;;;10.05;;
20629;SDS011;17386;43.846;25.950;2022-09-27T07:12:42;17.83;;;10.13;;
20629;SDS011;17386;43.846;25.950;2022-09-27T07:15:11;21.73;;;10.88;;
20629;SDS011;17386;43.846;25.950;2022-09-27T07:17:37;17.30;;;10.63;;
20629;SDS011;17386;43.846;25.950;2022-09-27T07:20:02;20.63;;;11.10;;
20629;SDS011;17386;43.846;25.950;2022-09-27T07:22:29;16.85;;;11.30;;
20629;SDS011;17386;43.846;25.950;2022-09-27T07:24:55;21.05;;;11.77;;
20629;SDS011;17386;43.846;25.950;2022-09-27T07:27:20;21.98;;;12.57;;
20629;SDS011;17386;43.846;25.950;2022-09-27T07:29:46;20.58;;;11.30;;
20629;SDS011;17386;43.846;25.950;2022-09-27T07:32:12;24.52;;;11.70;;
20629;SDS011;17386;43.846;25.950;2022-09-27T07:34:37;20.05;;;11.65;;
20629;SDS011;17386;43.846;25.950;2022-09-27T07:37:03;20.33;;;12.10;;
20629;SDS011;17386;43.846;25.950;2022-09-27T07:39:29;22.02;;;11.15;;
20629;SDS011;17386;43.846;25.950;2022-09-27T07:41:56;24.85;;;15.88;;
20629;SDS011;17386;43.846;25.950;2022-09-27T07:44:22;23.02;;;12.15;;
20629;SDS011;17386;43.846;25.950;2022-09-27T07:46:47;19.80;;;10.35;;
20629;SDS011;17386;43.846;25.950;2022-09-27T07:49:12;18.58;;;10.27;;
20629;SDS011;17386;43.846;25.950;2022-09-27T07:51:38;15.10;;;8.88;;
20629;SDS011;17386;43.846;25.950;2022-09-27T07:54:03;17.67;;;9.27;;
20629;SDS011;17386;43.846;25.950;2022-09-27T07:56:29;15.88;;;8.07;;
20629;SDS011;17386;43.846;25.950;2022-09-27T07:58:55;11.40;;;6.70;;
20629;SDS011;17386;43.846;25.950;2022-09-27T08:01:21;12.15;;;7.88;;
20629;SDS011;17386;43.846;25.950;2022-09-27T08:03:46;11.40;;;7.03;;
20629;SDS011;17386;43.846;25.950;2022-09-27T08:06:12;9.93;;;6.38;;
20629;SDS011;17386;43.846;25.950;2022-09-27T08:08:37;29.65;;;17.40;;
20629;SDS011;17386;43.846;25.950;2022-09-27T08:11:13;19.50;;;8.75;;
20629;SDS011;17386;43.846;25.950;2022-09-27T08:13:43;14.65;;;8.63;;
20629;SDS011;17386;43.846;25.950;2022-09-27T08:16:09;14.05;;;7.95;;
20629;SDS011;17386;43.846;25.950;2022-09-27T08:18:36;17.83;;;9.13;;
20629;SDS011;17386;43.846;25.950;2022-09-27T08:21:02;17.63;;;9.18;;
20629;SDS011;17386;43.846;25.950;2022-09-27T08:23:28;13.88;;;8.40;;
20629;SDS011;17386;43.846;25.950;2022-09-27T08:25:55;20.48;;;8.95;;
20629;SDS011;17386;43.846;25.950;2022-09-27T08:28:24;17.75;;;9.45;;
20629;SDS011;17386;43.846;25.950;2022-09-27T08:30:51;15.88;;;8.75;;
20629;SDS011;17386;43.846;25.950;2022-09-27T08:33:16;18.40;;;9.57;;
20629;SDS011;17386;43.846;25.950;2022-09-27T08:35:42;18.88;;;10.23;;
20629;SDS011;17386;43.846;25.950;2022-09-27T08:38:08;21.33;;;10.18;;
20629;SDS011;17386;43.846;25.950;2022-09-27T08:40:49;15.75;;;9.73;;
20629;SDS011;17386;43.846;25.950;2022-09-27T08:48:49;14.15;;;9.63;;
20629;SDS011;17386;43.846;25.950;2022-09-27T08:51:19;15.40;;;9.35;;
20629;SDS011;17386;43.846;25.950;2022-09-27T08:53:51;14.82;;;8.80;;
20629;SDS011;17386;43.846;25.950;2022-09-27T08:56:21;17.88;;;9.23;;
20629;SDS011;17386;43.846;25.950;2022-09-27T09:01:19;15.75;;;9.68;;
20629;SDS011;17386;43.846;25.950;2022-09-27T09:03:47;16.27;;;9.95;;
20629;SDS011;17386;43.846;25.950;2022-09-27T09:06:23;14.38;;;9.82;;
20629;SDS011;17386;43.846;25.950;2022-09-27T09:19:55;12.57;;;8.40;;
20629;SDS011;17386;43.846;25.950;2022-09-27T09:25:30;16.88;;;10.63;;
20629;SDS011;17386;43.846;25.950;2022-09-27T09:33:49;14.25;;;8.77;;
20629;SDS011;17386;43.846;25.950;2022-09-27T09:36:24;16.88;;;9.10;;
20629;SDS011;17386;43.846;25.950;2022-09-27T09:39:03;14.50;;;9.23;;
20629;SDS011;17386;43.846;25.950;2022-09-27T09:41:37;17.83;;;9.63;;
20629;SDS011;17386;43.846;25.950;2022-09-27T09:44:26;19.77;;;10.32;;
20629;SDS011;17386;43.846;25.950;2022-09-27T09:46:58;14.98;;;9.38;;
20629;SDS011;17386;43.846;25.950;2022-09-27T09:49:29;18.90;;;9.38;;
20629;SDS011;17386;43.846;25.950;2022-09-27T09:52:10;18.90;;;9.05;;
20629;SDS011;17386;43.846;25.950;2022-09-27T09:54:43;16.38;;;8.63;;
20629;SDS011;17386;43.846;25.950;2022-09-27T10:02:27;16.92;;;10.32;;
20629;SDS011;17386;43.846;25.950;2022-09-27T10:04:57;13.25;;;8.73;;
20629;SDS011;17386;43.846;25.950;2022-09-27T10:07:23;14.23;;;7.15;;
20629;SDS011;17386;43.846;25.950;2022-09-27T10:09:51;17.10;;;9.10;;
20629;SDS011;17386;43.846;25.950;2022-09-27T10:12:19;16.50;;;8.98;;
20629;SDS011;17386;43.846;25.950;2022-09-27T10:14:45;24.00;;;13.25;;
20629;SDS011;17386;43.846;25.950;2022-09-27T10:19:41;10.15;;;6.05;;
20629;SDS011;17386;43.846;25.950;2022-09-27T10:27:18;16.33;;;8.13;;
20629;SDS011;17386;43.846;25.950;2022-09-27T10:29:43;11.00;;;6.60;;
20629;SDS011;17386;43.846;25.950;2022-09-27T10:32:20;16.77;;;8.95;;
20629;SDS011;17386;43.846;25.950;2022-09-27T10:34:49;14.52;;;8.63;;
20629;SDS011;17386;43.846;25.950;2022-09-27T10:37:16;19.15;;;9.85;;
20629;SDS011;17386;43.846;25.950;2022-09-27T10:39:46;16.70;;;9.88;;
20629;SDS011;17386;43.846;25.950;2022-09-27T10:47:58;16.30;;;9.70;;
20629;SDS011;17386;43.846;25.950;2022-09-27T10:50:26;22.52;;;9.55;;
20629;SDS011;17386;43.846;25.950;2022-09-27T10:53:03;24.63;;;13.68;;
20629;SDS011;17386;43.846;25.950;2022-09-27T10:55:36;19.90;;;10.63;;
20629;SDS011;17386;43.846;25.950;2022-09-27T10:58:03;19.50;;;10.18;;
20629;SDS011;17386;43.846;25.950;2022-09-27T11:00:31;24.80;;;10.93;;
20629;SDS011;17386;43.846;25.950;2022-09-27T11:03:03;22.67;;;10.52;;
20629;SDS011;17386;43.846;25.950;2022-09-27T11:05:38;22.60;;;9.88;;
20629;SDS011;17386;43.846;25.950;2022-09-27T11:13:31;21.52;;;12.15;;
20629;SDS011;17386;43.846;25.950;2022-09-27T11:16:20;22.48;;;12.52;;
20629;SDS011;17386;43.846;25.950;2022-09-27T11:24:59;14.13;;;8.13;;
20629;SDS011;17386;43.846;25.950;2022-09-27T11:30:19;14.68;;;8.13;;
20629;SDS011;17386;43.846;25.950;2022-09-27T11:35:29;7.40;;;5.05;;
20629;SDS011;17386;43.846;25.950;2022-09-27T11:38:20;9.70;;;6.03;;
20629;SDS011;17386;43.846;25.950;2022-09-27T11:46:37;14.10;;;7.53;;
20629;SDS011;17386;43.846;25.950;2022-09-27T11:57:17;12.73;;;6.82;;
20629;SDS011;17386;43.846;25.950;2022-09-27T12:05:05;13.10;;;7.05;;
20629;SDS011;17386;43.846;25.950;2022-09-27T12:08:09;15.32;;;8.07;;
20629;SDS011;17386;43.846;25.950;2022-09-27T12:10:47;13.63;;;7.72;;
20629;SDS011;17386;43.846;25.950;2022-09-27T12:13:19;11.00;;;7.60;;
20629;SDS011;17386;43.846;25.950;2022-09-27T12:15:56;10.55;;;6.35;;
20629;SDS011;17386;43.846;25.950;2022-09-27T12:18:41;9.70;;;6.07;;
20629;SDS011;17386;43.846;25.950;2022-09-27T12:21:09;10.77;;;5.40;;
20629;SDS011;17386;43.846;25.950;2022-09-27T12:26:18;10.98;;;5.70;;
20629;SDS011;17386;43.846;25.950;2022-09-27T12:28:51;10.30;;;5.35;;
20629;SDS011;17386;43.846;25.950;2022-09-27T12:31:21;8.10;;;4.90;;
20629;SDS011;17386;43.846;25.950;2022-09-27T12:33:56;7.43;;;4.15;;
20629;SDS011;17386;43.846;25.950;2022-09-27T12:36:36;5.53;;;3.60;;
20629;SDS011;17386;43.846;25.950;2022-09-27T12:41:49;7.05;;;4.03;;
20629;SDS011;17386;43.846;25.950;2022-09-27T12:44:39;8.60;;;5.18;;
20629;SDS011;17386;43.846;25.950;2022-09-27T12:47:12;5.70;;;4.20;;
20629;SDS011;17386;43.846;25.950;2022-09-27T12:49:45;6.38;;;4.30;;
20629;SDS011;17386;43.846;25.950;2022-09-27T12:52:27;6.65;;;4.40;;
20629;SDS011;17386;43.846;25.950;2022-09-27T13:06:21;7.28;;;4.55;;
20629;SDS011;17386;43.846;25.950;2022-09-27T13:14:18;7.63;;;4.55;;
20629;SDS011;17386;43.846;25.950;2022-09-27T13:16:47;8.77;;;5.90;;
20629;SDS011;17386;43.846;25.950;2022-09-27T13:22:07;10.07;;;5.35;;
20629;SDS011;17386;43.846;25.950;2022-09-27T13:24:50;9.75;;;5.20;;
20629;SDS011;17386;43.846;25.950;2022-09-27T13:32:34;6.70;;;4.57;;
20629;SDS011;17386;43.846;25.950;2022-09-27T13:45:57;6.65;;;4.22;;
20629;SDS011;17386;43.846;25.950;2022-09-27T13:48:36;8.10;;;4.57;;
20629;SDS011;17386;43.846;25.950;2022-09-27T13:53:56;14.45;;;5.13;;
20629;SDS011;17386;43.846;25.950;2022-09-27T13:59:00;11.75;;;6.03;;
20629;SDS011;17386;43.846;25.950;2022-09-27T14:01:35;6.68;;;4.70;;
20629;SDS011;17386;43.846;25.950;2022-09-27T14:07:16;7.25;;;4.72;;
20629;SDS011;17386;43.846;25.950;2022-09-27T14:09:47;9.68;;;4.70;;
20629;SDS011;17386;43.846;25.950;2022-09-27T14:12:19;13.43;;;5.65;;
20629;SDS011;17386;43.846;25.950;2022-09-27T14:14:49;6.05;;;4.47;;
20629;SDS011;17386;43.846;25.950;2022-09-27T14:17:17;7.95;;;4.53;;
20629;SDS011;17386;43.846;25.950;2022-09-27T14:19:43;9.90;;;5.28;;
20629;SDS011;17386;43.846;25.950;2022-09-27T14:22:13;7.43;;;4.82;;
20629;SDS011;17386;43.846;25.950;2022-09-27T14:24:50;7.60;;;4.00;;
20629;SDS011;17386;43.846;25.950;2022-09-27T14:29:49;10.57;;;4.80;;
20629;SDS011;17386;43.846;25.950;2022-09-27T14:32:21;8.65;;;4.80;;
20629;SDS011;17386;43.846;25.950;2022-09-27T14:37:59;10.00;;;5.13;;
20629;SDS011;17386;43.846;25.950;2022-09-27T14:40:42;10.32;;;5.30;;
20629;SDS011;17386;43.846;25.950;2022-09-27T14:43:23;8.82;;;5.57;;
20629;SDS011;17386;43.846;25.950;2022-09-27T14:45:51;12.80;;;5.93;;
20629;SDS011;17386;43.846;25.950;2022-09-27T14:50:59;11.20;;;6.35;;
20629;SDS011;17386;43.846;25.950;2022-09-27T14:53:34;16.00;;;7.57;;
20629;SDS011;17386;43.846;25.950;2022-09-27T14:56:05;15.95;;;7.10;;
20629;SDS011;17386;43.846;25.950;2022-09-27T14:58:32;13.30;;;6.43;;
20629;SDS011;17386;43.846;25.950;2022-09-27T15:00:58;10.68;;;5.93;;
20629;SDS011;17386;43.846;25.950;2022-09-27T15:03:29;12.35;;;7.10;;
20629;SDS011;17386;43.846;25.950;2022-09-27T15:05:56;10.00;;;6.43;;
20629;SDS011;17386;43.846;25.950;2022-09-27T15:08:24;11.75;;;6.72;;
20629;SDS011;17386;43.846;25.950;2022-09-27T15:10:57;14.50;;;7.22;;
20629;SDS011;17386;43.846;25.950;2022-09-27T15:13:24;18.40;;;7.47;;
20629;SDS011;17386;43.846;25.950;2022-09-27T15:15:51;14.98;;;7.63;;
20629;SDS011;17386;43.846;25.950;2022-09-27T15:20:58;15.90;;;7.78;;
20629;SDS011;17386;43.846;25.950;2022-09-27T15:23:25;18.27;;;8.07;;
20629;SDS011;17386;43.846;25.950;2022-09-27T15:28:31;26.13;;;14.52;;
20629;SDS011;17386;43.846;25.950;2022-09-27T15:30:58;13.90;;;7.22;;
20629;SDS011;17386;43.846;25.950;2022-09-27T15:33:28;12.57;;;7.13;;
20629;SDS011;17386;43.846;25.950;2022-09-27T15:35:59;11.70;;;6.85;;
20629;SDS011;17386;43.846;25.950;2022-09-27T15:38:48;11.30;;;5.90;;
20629;SDS011;17386;43.846;25.950;2022-09-27T15:41:30;12.82;;;6.90;;
20629;SDS011;17386;43.846;25.950;2022-09-27T15:44:47;14.45;;;6.80;;
20629;SDS011;17386;43.846;25.950;2022-09-27T15:49:58;11.75;;;6.72;;
20629;SDS011;17386;43.846;25.950;2022-09-27T15:52:39;11.35;;;7.63;;
20629;SDS011;17386;43.846;25.950;2022-09-27T15:55:12;15.30;;;7.82;;
20629;SDS011;17386;43.846;25.950;2022-09-27T15:57:41;12.23;;;6.97;;
20629;SDS011;17386;43.846;25.950;2022-09-27T16:00:10;12.43;;;7.03;;
20629;SDS011;17386;43.846;25.950;2022-09-27T16:02:37;14.23;;;7.30;;
20629;SDS011;17386;43.846;25.950;2022-09-27T16:05:03;11.20;;;6.65;;
20629;SDS011;17386;43.846;25.950;2022-09-27T16:07:28;17.13;;;9.57;;
20629;SDS011;17386;43.846;25.950;2022-09-27T16:09:54;16.83;;;7.68;;
20629;SDS011;17386;43.846;25.950;2022-09-27T16:12:20;16.80;;;8.00;;
20629;SDS011;17386;43.846;25.950;2022-09-27T16:14:46;14.13;;;8.13;;
20629;SDS011;17386;43.846;25.950;2022-09-27T16:17:12;12.02;;;7.47;;
20629;SDS011;17386;43.846;25.950;2022-09-27T16:19:38;14.18;;;7.43;;
20629;SDS011;17386;43.846;25.950;2022-09-27T16:22:03;15.32;;;7.60;;
20629;SDS011;17386;43.846;25.950;2022-09-27T16:24:29;19.10;;;7.95;;
20629;SDS011;17386;43.846;25.950;2022-09-27T16:26:56;11.82;;;7.35;;
20629;SDS011;17386;43.846;25.950;2022-09-27T16:29:21;16.33;;;9.10;;
20629;SDS011;17386;43.846;25.950;2022-09-27T16:31:47;24.30;;;10.93;;
20629;SDS011;17386;43.846;25.950;2022-09-27T16:34:12;18.83;;;9.07;;
20629;SDS011;17386;43.846;25.950;2022-09-27T16:36:38;20.13;;;9.90;;
20629;SDS011;17386;43.846;25.950;2022-09-27T16:39:05;18.02;;;8.48;;
20629;SDS011;17386;43.846;25.950;2022-09-27T16:41:32;17.77;;;9.07;;
20629;SDS011;17386;43.846;25.950;2022-09-27T16:43:58;15.98;;;9.00;;
20629;SDS011;17386;43.846;25.950;2022-09-27T16:46:29;18.70;;;9.00;;
20629;SDS011;17386;43.846;25.950;2022-09-27T16:48:56;20.50;;;8.93;;
20629;SDS011;17386;43.846;25.950;2022-09-27T16:51:22;24.70;;;10.13;;
20629;SDS011;17386;43.846;25.950;2022-09-27T16:54:06;23.80;;;9.70;;
20629;SDS011;17386;43.846;25.950;2022-09-27T16:56:32;18.85;;;9.70;;
20629;SDS011;17386;43.846;25.950;2022-09-27T16:58:59;21.23;;;10.38;;
20629;SDS011;17386;43.846;25.950;2022-09-27T17:01:27;20.20;;;9.98;;
20629;SDS011;17386;43.846;25.950;2022-09-27T17:03:53;21.45;;;8.88;;
20629;SDS011;17386;43.846;25.950;2022-09-27T17:06:19;21.73;;;9.25;;
20629;SDS011;17386;43.846;25.950;2022-09-27T17:08:45;16.17;;;8.35;;
20629;SDS011;17386;43.846;25.950;2022-09-27T17:11:11;19.50;;;8.70;;
20629;SDS011;17386;43.846;25.950;2022-09-27T17:13:39;23.60;;;9.90;;
20629;SDS011;17386;43.846;25.950;2022-09-27T17:16:04;21.05;;;10.05;;
20629;SDS011;17386;43.846;25.950;2022-09-27T17:18:30;28.95;;;12.15;;
20629;SDS011;17386;43.846;25.950;2022-09-27T17:21:02;21.75;;;11.20;;
20629;SDS011;17386;43.846;25.950;2022-09-27T17:23:30;16.80;;;9.32;;
20629;SDS011;17386;43.846;25.950;2022-09-27T17:26:00;15.07;;;8.05;;
20629;SDS011;17386;43.846;25.950;2022-09-27T17:28:27;15.02;;;8.00;;
20629;SDS011;17386;43.846;25.950;2022-09-27T17:30:53;19.35;;;8.68;;
20629;SDS011;17386;43.846;25.950;2022-09-27T17:33:20;16.13;;;8.98;;
20629;SDS011;17386;43.846;25.950;2022-09-27T17:35:45;20.38;;;8.98;;
20629;SDS011;17386;43.846;25.950;2022-09-27T17:38:11;21.58;;;10.32;;
20629;SDS011;17386;43.846;25.950;2022-09-27T17:40:37;20.45;;;9.80;;
20629;SDS011;17386;43.846;25.950;2022-09-27T17:43:03;21.52;;;10.77;;
20629;SDS011;17386;43.846;25.950;2022-09-27T17:45:30;22.60;;;10.43;;
20629;SDS011;17386;43.846;25.950;2022-09-27T17:47:57;23.00;;;11.10;;
20629;SDS011;17386;43.846;25.950;2022-09-27T17:50:44;23.48;;;11.30;;
20629;SDS011;17386;43.846;25.950;2022-09-27T17:53:10;28.73;;;11.65;;
20629;SDS011;17386;43.846;25.950;2022-09-27T17:55:35;28.08;;;12.18;;